Terminal Aerodrome Forecast
Issued by NWS Mt. Holly, NJ

Home | Current Version | Previous Version | Text Only | Print | Product List | Glossary On
Versions: 1 2 3 4 5 6 7 8 9 10 11 12 13 14 15 16 17
000
FTUS41 KPHI 040538
TAFABE
TAF
KABE 040538Z 0406/0506 VRB03KT 6SM HZ BKN250
     FM040800 03004KT P6SM SCT080
     FM041300 08008KT P6SM BKN050
      TEMPO 0418/0422 -SHRA
     FM050200 07006KT P6SM SCT050 BKN100=

USA.gov is the U.S. government's official web portal to all federal, state and local government web resources and services.